sensor_id;sensor_type;location;lat;lon;timestamp;temperature;humidity
3860;DHT22;1945;52.036;8.614;2023-06-19T00:02:12;22.30;1.00
3860;DHT22;1945;52.036;8.614;2023-06-19T00:04:39;22.30;1.00
3860;DHT22;1945;52.036;8.614;2023-06-19T00:07:06;22.30;1.00
3860;DHT22;1945;52.036;8.614;2023-06-19T00:09:33;22.30;1.00
3860;DHT22;1945;52.036;8.614;2023-06-19T00:11:59;22.30;1.00
3860;DHT22;1945;52.036;8.614;2023-06-19T00:14:28;22.10;1.00
3860;DHT22;1945;52.036;8.614;2023-06-19T00:16:55;22.10;1.00
3860;DHT22;1945;52.036;8.614;2023-06-19T00:19:21;22.10;1.00
3860;DHT22;1945;52.036;8.614;2023-06-19T00:21:48;22.10;1.00
3860;DHT22;1945;52.036;8.614;2023-06-19T00:24:15;22.00;1.00
3860;DHT22;1945;52.036;8.614;2023-06-19T00:26:42;22.00;1.00
3860;DHT22;1945;52.036;8.614;2023-06-19T00:29:09;22.00;1.00
3860;DHT22;1945;52.036;8.614;2023-06-19T00:31:37;22.00;1.00
3860;DHT22;1945;52.036;8.614;2023-06-19T00:34:03;21.90;1.00
3860;DHT22;1945;52.036;8.614;2023-06-19T00:36:30;21.90;1.00
3860;DHT22;1945;52.036;8.614;2023-06-19T00:38:57;21.90;1.00
3860;DHT22;1945;52.036;8.614;2023-06-19T00:41:26;21.80;1.00
3860;DHT22;1945;52.036;8.614;2023-06-19T00:43:57;21.70;1.00
3860;DHT22;1945;52.036;8.614;2023-06-19T00:46:23;21.70;1.00
3860;DHT22;1945;52.036;8.614;2023-06-19T00:48:51;21.70;1.00
3860;DHT22;1945;52.036;8.614;2023-06-19T00:51:18;21.60;1.00
3860;DHT22;1945;52.036;8.614;2023-06-19T00:53:45;21.60;1.00
3860;DHT22;1945;52.036;8.614;2023-06-19T00:56:12;21.50;1.00
3860;DHT22;1945;52.036;8.614;2023-06-19T00:58:39;21.50;1.00
3860;DHT22;1945;52.036;8.614;2023-06-19T01:01:06;21.50;1.00
3860;DHT22;1945;52.036;8.614;2023-06-19T01:03:33;21.40;14.70
3860;DHT22;1945;52.036;8.614;2023-06-19T01:06:05;21.40;1.00
3860;DHT22;1945;52.036;8.614;2023-06-19T01:08:43;21.30;1.00
3860;DHT22;1945;52.036;8.614;2023-06-19T01:11:12;21.30;1.00
3860;DHT22;1945;52.036;8.614;2023-06-19T01:13:44;21.40;1.00
3860;DHT22;1945;52.036;8.614;2023-06-19T01:16:11;21.40;1.00
3860;DHT22;1945;52.036;8.614;2023-06-19T01:18:38;21.50;1.00
3860;DHT22;1945;52.036;8.614;2023-06-19T01:21:11;21.40;1.00
3860;DHT22;1945;52.036;8.614;2023-06-19T01:23:40;21.40;1.00
3860;DHT22;1945;52.036;8.614;2023-06-19T01:26:06;21.40;1.00
3860;DHT22;1945;52.036;8.614;2023-06-19T01:28:34;21.40;1.00
3860;DHT22;1945;52.036;8.614;2023-06-19T01:31:04;21.30;1.00
3860;DHT22;1945;52.036;8.614;2023-06-19T01:33:33;21.30;1.00
3860;DHT22;1945;52.036;8.614;2023-06-19T01:36:03;21.40;1.00
3860;DHT22;1945;52.036;8.614;2023-06-19T01:38:31;21.50;1.00
3860;DHT22;1945;52.036;8.614;2023-06-19T01:41:00;21.50;1.00
3860;DHT22;1945;52.036;8.614;2023-06-19T01:43:29;21.50;1.00
3860;DHT22;1945;52.036;8.614;2023-06-19T01:45:56;21.50;1.00
3860;DHT22;1945;52.036;8.614;2023-06-19T01:48:23;21.40;1.00
3860;DHT22;1945;52.036;8.614;2023-06-19T01:50:51;21.40;1.00
3860;DHT22;1945;52.036;8.614;2023-06-19T01:53:18;21.50;1.00
3860;DHT22;1945;52.036;8.614;2023-06-19T01:55:45;21.50;1.00
3860;DHT22;1945;52.036;8.614;2023-06-19T01:58:13;21.10;1.00
3860;DHT22;1945;52.036;8.614;2023-06-19T02:00:39;21.30;1.00
3860;DHT22;1945;52.036;8.614;2023-06-19T02:03:06;21.40;1.00
3860;DHT22;1945;52.036;8.614;2023-06-19T02:05:32;21.30;1.00
3860;DHT22;1945;52.036;8.614;2023-06-19T02:07:59;21.30;1.00
3860;DHT22;1945;52.036;8.614;2023-06-19T02:10:26;21.30;1.00
3860;DHT22;1945;52.036;8.614;2023-06-19T02:12:53;21.20;1.00
3860;DHT22;1945;52.036;8.614;2023-06-19T02:15:21;21.30;1.00
3860;DHT22;1945;52.036;8.614;2023-06-19T02:17:47;21.20;1.00
3860;DHT22;1945;52.036;8.614;2023-06-19T02:20:15;21.20;1.00
3860;DHT22;1945;52.036;8.614;2023-06-19T02:22:41;21.20;1.00
3860;DHT22;1945;52.036;8.614;2023-06-19T02:25:08;21.40;1.00
3860;DHT22;1945;52.036;8.614;2023-06-19T02:27:35;21.10;70.80
3860;DHT22;1945;52.036;8.614;2023-06-19T02:30:01;21.00;99.90
3860;DHT22;1945;52.036;8.614;2023-06-19T02:32:31;21.00;99.90
3860;DHT22;1945;52.036;8.614;2023-06-19T02:34:58;20.90;99.90
3860;DHT22;1945;52.036;8.614;2023-06-19T02:37:25;21.00;99.90
3860;DHT22;1945;52.036;8.614;2023-06-19T02:39:51;21.10;99.90
3860;DHT22;1945;52.036;8.614;2023-06-19T02:42:18;21.00;99.90
3860;DHT22;1945;52.036;8.614;2023-06-19T02:44:45;21.00;99.90
3860;DHT22;1945;52.036;8.614;2023-06-19T02:47:11;20.90;99.90
3860;DHT22;1945;52.036;8.614;2023-06-19T02:49:39;20.90;99.90
3860;DHT22;1945;52.036;8.614;2023-06-19T02:52:07;20.80;99.90
3860;DHT22;1945;52.036;8.614;2023-06-19T02:54:34;20.80;99.90
3860;DHT22;1945;52.036;8.614;2023-06-19T02:57:00;20.80;99.90
3860;DHT22;1945;52.036;8.614;2023-06-19T02:59:27;20.80;99.90
3860;DHT22;1945;52.036;8.614;2023-06-19T03:01:54;20.80;99.90
3860;DHT22;1945;52.036;8.614;2023-06-19T03:04:20;20.80;99.90
3860;DHT22;1945;52.036;8.614;2023-06-19T03:06:49;20.80;99.90
3860;DHT22;1945;52.036;8.614;2023-06-19T03:09:16;20.80;99.90
3860;DHT22;1945;52.036;8.614;2023-06-19T03:11:43;20.80;99.90
3860;DHT22;1945;52.036;8.614;2023-06-19T03:14:10;20.90;99.90
3860;DHT22;1945;52.036;8.614;2023-06-19T03:16:36;21.00;99.90
3860;DHT22;1945;52.036;8.614;2023-06-19T03:19:03;20.90;99.90
3860;DHT22;1945;52.036;8.614;2023-06-19T03:21:30;20.90;99.90
3860;DHT22;1945;52.036;8.614;2023-06-19T03:23:58;20.90;99.90
3860;DHT22;1945;52.036;8.614;2023-06-19T03:26:24;20.90;99.90
3860;DHT22;1945;52.036;8.614;2023-06-19T03:28:51;20.70;99.90
3860;DHT22;1945;52.036;8.614;2023-06-19T03:31:18;20.70;99.90
3860;DHT22;1945;52.036;8.614;2023-06-19T03:33:44;20.70;99.90
3860;DHT22;1945;52.036;8.614;2023-06-19T03:36:11;20.70;99.90
3860;DHT22;1945;52.036;8.614;2023-06-19T03:38:38;20.60;99.90
3860;DHT22;1945;52.036;8.614;2023-06-19T03:41:06;20.60;99.90
3860;DHT22;1945;52.036;8.614;2023-06-19T03:43:33;20.50;99.90
3860;DHT22;1945;52.036;8.614;2023-06-19T03:45:59;20.50;99.90
3860;DHT22;1945;52.036;8.614;2023-06-19T03:48:26;20.60;1.00
3860;DHT22;1945;52.036;8.614;2023-06-19T03:50:53;20.50;99.90
3860;DHT22;1945;52.036;8.614;2023-06-19T03:53:20;20.50;99.90
3860;DHT22;1945;52.036;8.614;2023-06-19T03:55:47;20.40;99.90
3860;DHT22;1945;52.036;8.614;2023-06-19T03:58:15;20.30;99.90
3860;DHT22;1945;52.036;8.614;2023-06-19T04:00:42;20.30;99.90
3860;DHT22;1945;52.036;8.614;2023-06-19T04:03:09;20.30;99.90
3860;DHT22;1945;52.036;8.614;2023-06-19T04:05:35;20.40;99.90
3860;DHT22;1945;52.036;8.614;2023-06-19T04:08:02;20.40;99.90
3860;DHT22;1945;52.036;8.614;2023-06-19T04:10:29;20.50;99.90
3860;DHT22;1945;52.036;8.614;2023-06-19T04:12:56;20.60;99.90
3860;DHT22;1945;52.036;8.614;2023-06-19T04:15:24;20.60;99.90
3860;DHT22;1945;52.036;8.614;2023-06-19T04:17:51;20.70;99.90
3860;DHT22;1945;52.036;8.614;2023-06-19T04:20:18;20.80;1.00
3860;DHT22;1945;52.036;8.614;2023-06-19T04:22:45;20.80;99.90
3860;DHT22;1945;52.036;8.614;2023-06-19T04:25:12;20.80;99.90
3860;DHT22;1945;52.036;8.614;2023-06-19T04:27:39;20.80;99.90
3860;DHT22;1945;52.036;8.614;2023-06-19T04:30:06;21.00;99.90
3860;DHT22;1945;52.036;8.614;2023-06-19T04:32:35;20.90;99.90
3860;DHT22;1945;52.036;8.614;2023-06-19T04:35:02;20.90;99.90
3860;DHT22;1945;52.036;8.614;2023-06-19T04:37:28;21.10;99.90
3860;DHT22;1945;52.036;8.614;2023-06-19T04:39:55;21.20;99.90
3860;DHT22;1945;52.036;8.614;2023-06-19T04:42:24;21.20;99.90
3860;DHT22;1945;52.036;8.614;2023-06-19T04:44:53;21.30;99.90
3860;DHT22;1945;52.036;8.614;2023-06-19T04:47:22;21.40;99.90
3860;DHT22;1945;52.036;8.614;2023-06-19T04:49:50;21.60;99.90
3860;DHT22;1945;52.036;8.614;2023-06-19T04:52:17;21.90;1.00
3860;DHT22;1945;52.036;8.614;2023-06-19T04:54:44;22.00;1.00
3860;DHT22;1945;52.036;8.614;2023-06-19T04:57:13;22.20;1.00
3860;DHT22;1945;52.036;8.614;2023-06-19T04:59:41;22.30;1.00
3860;DHT22;1945;52.036;8.614;2023-06-19T05:02:08;22.50;1.00
3860;DHT22;1945;52.036;8.614;2023-06-19T05:04:35;22.60;1.00
3860;DHT22;1945;52.036;8.614;2023-06-19T05:07:04;22.70;1.00
3860;DHT22;1945;52.036;8.614;2023-06-19T05:09:31;22.80;1.00
3860;DHT22;1945;52.036;8.614;2023-06-19T05:11:58;22.90;1.00
3860;DHT22;1945;52.036;8.614;2023-06-19T05:14:25;23.00;1.00
3860;DHT22;1945;52.036;8.614;2023-06-19T05:16:53;23.00;1.00
3860;DHT22;1945;52.036;8.614;2023-06-19T05:19:20;23.10;1.00
3860;DHT22;1945;52.036;8.614;2023-06-19T05:21:47;23.10;1.00
3860;DHT22;1945;52.036;8.614;2023-06-19T05:24:16;23.10;1.00
3860;DHT22;1945;52.036;8.614;2023-06-19T05:26:43;23.20;1.00
3860;DHT22;1945;52.036;8.614;2023-06-19T05:29:10;23.40;1.00
3860;DHT22;1945;52.036;8.614;2023-06-19T05:31:37;24.00;1.00
3860;DHT22;1945;52.036;8.614;2023-06-19T05:34:04;24.30;1.00
3860;DHT22;1945;52.036;8.614;2023-06-19T05:36:30;24.50;1.00
3860;DHT22;1945;52.036;8.614;2023-06-19T05:38:57;24.80;1.00
3860;DHT22;1945;52.036;8.614;2023-06-19T05:41:25;24.80;1.00
3860;DHT22;1945;52.036;8.614;2023-06-19T05:43:52;25.00;1.00
3860;DHT22;1945;52.036;8.614;2023-06-19T05:46:19;25.20;1.00
3860;DHT22;1945;52.036;8.614;2023-06-19T05:48:47;25.50;1.00
3860;DHT22;1945;52.036;8.614;2023-06-19T05:51:14;25.50;1.00
3860;DHT22;1945;52.036;8.614;2023-06-19T05:53:40;25.70;1.00
3860;DHT22;1945;52.036;8.614;2023-06-19T05:56:07;26.00;1.00
3860;DHT22;1945;52.036;8.614;2023-06-19T05:58:35;25.90;1.00
3860;DHT22;1945;52.036;8.614;2023-06-19T06:01:02;26.00;1.00
3860;DHT22;1945;52.036;8.614;2023-06-19T06:03:29;26.40;1.00
3860;DHT22;1945;52.036;8.614;2023-06-19T06:05:57;26.40;1.00
3860;DHT22;1945;52.036;8.614;2023-06-19T06:08:28;26.30;1.00
3860;DHT22;1945;52.036;8.614;2023-06-19T06:10:55;26.30;1.00
3860;DHT22;1945;52.036;8.614;2023-06-19T06:13:21;26.60;1.00
3860;DHT22;1945;52.036;8.614;2023-06-19T06:15:50;26.40;1.00
3860;DHT22;1945;52.036;8.614;2023-06-19T06:18:16;26.70;1.00
3860;DHT22;1945;52.036;8.614;2023-06-19T06:20:43;26.60;1.00
3860;DHT22;1945;52.036;8.614;2023-06-19T06:23:10;27.00;1.00
3860;DHT22;1945;52.036;8.614;2023-06-19T06:25:36;27.10;1.00
3860;DHT22;1945;52.036;8.614;2023-06-19T06:28:03;26.90;1.00
3860;DHT22;1945;52.036;8.614;2023-06-19T06:30:30;27.10;1.00
3860;DHT22;1945;52.036;8.614;2023-06-19T06:32:58;26.80;1.00
3860;DHT22;1945;52.036;8.614;2023-06-19T06:35:25;27.10;1.00
3860;DHT22;1945;52.036;8.614;2023-06-19T06:37:51;27.30;1.00
3860;DHT22;1945;52.036;8.614;2023-06-19T06:40:18;27.40;1.00
3860;DHT22;1945;52.036;8.614;2023-06-19T06:42:45;27.50;1.00
3860;DHT22;1945;52.036;8.614;2023-06-19T06:45:12;27.70;1.00
3860;DHT22;1945;52.036;8.614;2023-06-19T06:47:39;27.10;1.00
3860;DHT22;1945;52.036;8.614;2023-06-19T06:50:08;27.70;1.00
3860;DHT22;1945;52.036;8.614;2023-06-19T06:52:35;27.60;1.00
3860;DHT22;1945;52.036;8.614;2023-06-19T06:55:03;28.40;1.00
3860;DHT22;1945;52.036;8.614;2023-06-19T06:57:30;28.90;1.00
3860;DHT22;1945;52.036;8.614;2023-06-19T06:59:56;28.30;1.00
3860;DHT22;1945;52.036;8.614;2023-06-19T07:02:23;28.60;1.00
3860;DHT22;1945;52.036;8.614;2023-06-19T07:04:50;28.00;1.00
3860;DHT22;1945;52.036;8.614;2023-06-19T07:07:19;27.90;1.00
3860;DHT22;1945;52.036;8.614;2023-06-19T07:09:46;27.60;1.00
3860;DHT22;1945;52.036;8.614;2023-06-19T07:12:13;28.00;1.00
3860;DHT22;1945;52.036;8.614;2023-06-19T07:14:39;28.40;1.00
3860;DHT22;1945;52.036;8.614;2023-06-19T07:17:06;28.60;1.00
3860;DHT22;1945;52.036;8.614;2023-06-19T07:19:33;28.40;1.00
3860;DHT22;1945;52.036;8.614;2023-06-19T07:22:00;27.70;1.00
3860;DHT22;1945;52.036;8.614;2023-06-19T07:24:28;28.00;1.00
3860;DHT22;1945;52.036;8.614;2023-06-19T07:26:55;28.20;1.00
3860;DHT22;1945;52.036;8.614;2023-06-19T07:29:22;27.20;1.00
3860;DHT22;1945;52.036;8.614;2023-06-19T07:31:48;27.50;1.00
3860;DHT22;1945;52.036;8.614;2023-06-19T07:34:15;27.10;1.00
3860;DHT22;1945;52.036;8.614;2023-06-19T07:36:41;27.00;1.00
3860;DHT22;1945;52.036;8.614;2023-06-19T07:39:08;26.50;1.00
3860;DHT22;1945;52.036;8.614;2023-06-19T07:41:36;26.40;1.00
3860;DHT22;1945;52.036;8.614;2023-06-19T07:44:04;26.30;1.00
3860;DHT22;1945;52.036;8.614;2023-06-19T07:46:30;26.30;1.00
3860;DHT22;1945;52.036;8.614;2023-06-19T07:48:57;26.70;1.00
3860;DHT22;1945;52.036;8.614;2023-06-19T07:51:24;26.20;1.00
3860;DHT22;1945;52.036;8.614;2023-06-19T07:53:50;26.50;1.00
3860;DHT22;1945;52.036;8.614;2023-06-19T07:56:17;26.70;1.00
3860;DHT22;1945;52.036;8.614;2023-06-19T07:58:45;26.50;1.00
3860;DHT22;1945;52.036;8.614;2023-06-19T08:01:12;26.50;1.00
3860;DHT22;1945;52.036;8.614;2023-06-19T08:03:39;26.60;1.00
3860;DHT22;1945;52.036;8.614;2023-06-19T08:06:05;26.10;1.00
3860;DHT22;1945;52.036;8.614;2023-06-19T08:08:32;25.70;1.00
3860;DHT22;1945;52.036;8.614;2023-06-19T08:10:59;25.90;1.00
3860;DHT22;1945;52.036;8.614;2023-06-19T08:13:25;25.80;1.00
3860;DHT22;1945;52.036;8.614;2023-06-19T08:15:53;26.00;1.00
3860;DHT22;1945;52.036;8.614;2023-06-19T08:18:20;26.20;1.00
3860;DHT22;1945;52.036;8.614;2023-06-19T08:20:47;26.20;1.00
3860;DHT22;1945;52.036;8.614;2023-06-19T08:23:13;26.40;1.00
3860;DHT22;1945;52.036;8.614;2023-06-19T08:25:40;26.50;1.00
3860;DHT22;1945;52.036;8.614;2023-06-19T08:28:07;27.20;1.00
3860;DHT22;1945;52.036;8.614;2023-06-19T08:30:34;26.80;1.00
3860;DHT22;1945;52.036;8.614;2023-06-19T08:33:02;26.80;1.00
3860;DHT22;1945;52.036;8.614;2023-06-19T08:35:29;26.70;1.00
3860;DHT22;1945;52.036;8.614;2023-06-19T08:37:56;26.30;1.00
3860;DHT22;1945;52.036;8.614;2023-06-19T08:40:22;26.40;1.00
3860;DHT22;1945;52.036;8.614;2023-06-19T08:42:49;26.00;1.00
3860;DHT22;1945;52.036;8.614;2023-06-19T08:45:17;26.50;1.00
3860;DHT22;1945;52.036;8.614;2023-06-19T08:47:46;26.80;1.00
3860;DHT22;1945;52.036;8.614;2023-06-19T08:50:15;27.20;1.00
3860;DHT22;1945;52.036;8.614;2023-06-19T08:52:41;27.70;1.00
3860;DHT22;1945;52.036;8.614;2023-06-19T08:55:08;28.20;1.00
3860;DHT22;1945;52.036;8.614;2023-06-19T08:57:37;28.80;1.00
3860;DHT22;1945;52.036;8.614;2023-06-19T09:00:05;27.90;1.00
3860;DHT22;1945;52.036;8.614;2023-06-19T09:02:43;27.30;1.00
3860;DHT22;1945;52.036;8.614;2023-06-19T09:05:12;27.30;1.00
3860;DHT22;1945;52.036;8.614;2023-06-19T09:07:40;27.20;1.00
3860;DHT22;1945;52.036;8.614;2023-06-19T09:10:15;27.10;1.00
3860;DHT22;1945;52.036;8.614;2023-06-19T09:12:42;27.30;1.00
3860;DHT22;1945;52.036;8.614;2023-06-19T09:15:13;26.90;1.00
3860;DHT22;1945;52.036;8.614;2023-06-19T09:17:40;27.20;1.00
3860;DHT22;1945;52.036;8.614;2023-06-19T09:20:08;26.90;1.00
3860;DHT22;1945;52.036;8.614;2023-06-19T09:22:37;26.90;1.00
3860;DHT22;1945;52.036;8.614;2023-06-19T09:25:06;26.70;1.00
3860;DHT22;1945;52.036;8.614;2023-06-19T09:27:35;26.70;1.00
3860;DHT22;1945;52.036;8.614;2023-06-19T09:30:04;26.70;1.00
3860;DHT22;1945;52.036;8.614;2023-06-19T09:32:31;27.40;1.00
3860;DHT22;1945;52.036;8.614;2023-06-19T09:34:58;28.00;1.00
3860;DHT22;1945;52.036;8.614;2023-06-19T09:37:26;28.50;1.00
3860;DHT22;1945;52.036;8.614;2023-06-19T09:39:54;28.20;1.00
3860;DHT22;1945;52.036;8.614;2023-06-19T09:42:27;27.50;1.00
3860;DHT22;1945;52.036;8.614;2023-06-19T09:44:58;28.10;1.00
3860;DHT22;1945;52.036;8.614;2023-06-19T09:47:25;28.00;1.00
3860;DHT22;1945;52.036;8.614;2023-06-19T09:49:57;27.80;1.00
3860;DHT22;1945;52.036;8.614;2023-06-19T09:52:25;27.80;1.00
3860;DHT22;1945;52.036;8.614;2023-06-19T09:54:54;27.80;1.00
3860;DHT22;1945;52.036;8.614;2023-06-19T09:57:23;28.10;1.00
3860;DHT22;1945;52.036;8.614;2023-06-19T09:59:52;28.00;1.00
3860;DHT22;1945;52.036;8.614;2023-06-19T10:02:20;27.70;1.00
3860;DHT22;1945;52.036;8.614;2023-06-19T10:04:51;27.10;1.00
3860;DHT22;1945;52.036;8.614;2023-06-19T10:07:19;27.20;1.00
3860;DHT22;1945;52.036;8.614;2023-06-19T10:09:58;26.60;1.00
3860;DHT22;1945;52.036;8.614;2023-06-19T10:12:36;26.70;1.00
3860;DHT22;1945;52.036;8.614;2023-06-19T10:15:09;26.90;1.00
3860;DHT22;1945;52.036;8.614;2023-06-19T10:17:36;27.00;1.00
3860;DHT22;1945;52.036;8.614;2023-06-19T10:20:03;26.60;1.00
3860;DHT22;1945;52.036;8.614;2023-06-19T10:22:36;26.00;1.00
3860;DHT22;1945;52.036;8.614;2023-06-19T10:25:04;25.80;1.00
3860;DHT22;1945;52.036;8.614;2023-06-19T10:27:37;26.00;1.00
3860;DHT22;1945;52.036;8.614;2023-06-19T10:30:04;26.40;1.00
3860;DHT22;1945;52.036;8.614;2023-06-19T10:32:42;26.60;1.00
3860;DHT22;1945;52.036;8.614;2023-06-19T10:35:11;26.70;1.00
3860;DHT22;1945;52.036;8.614;2023-06-19T10:37:38;26.70;1.00
3860;DHT22;1945;52.036;8.614;2023-06-19T10:40:06;26.90;1.00
3860;DHT22;1945;52.036;8.614;2023-06-19T10:42:36;26.70;1.00
3860;DHT22;1945;52.036;8.614;2023-06-19T10:45:04;26.70;1.00
3860;DHT22;1945;52.036;8.614;2023-06-19T10:47:32;26.80;1.00
3860;DHT22;1945;52.036;8.614;2023-06-19T10:49:59;26.80;1.00
3860;DHT22;1945;52.036;8.614;2023-06-19T10:52:28;26.70;1.00
3860;DHT22;1945;52.036;8.614;2023-06-19T10:54:55;26.80;1.00
3860;DHT22;1945;52.036;8.614;2023-06-19T10:57:27;26.60;1.00
3860;DHT22;1945;52.036;8.614;2023-06-19T10:59:55;26.70;1.00
3860;DHT22;1945;52.036;8.614;2023-06-19T11:02:22;26.80;1.00
3860;DHT22;1945;52.036;8.614;2023-06-19T11:04:52;26.70;1.00
3860;DHT22;1945;52.036;8.614;2023-06-19T11:07:19;26.90;1.00
3860;DHT22;1945;52.036;8.614;2023-06-19T11:09:46;27.60;1.00
3860;DHT22;1945;52.036;8.614;2023-06-19T11:12:19;27.70;1.00
3860;DHT22;1945;52.036;8.614;2023-06-19T11:14:46;27.70;1.00
3860;DHT22;1945;52.036;8.614;2023-06-19T11:17:14;28.10;1.00
3860;DHT22;1945;52.036;8.614;2023-06-19T11:19:40;27.50;1.00
3860;DHT22;1945;52.036;8.614;2023-06-19T11:22:10;27.30;1.00
3860;DHT22;1945;52.036;8.614;2023-06-19T11:24:37;27.10;1.00
3860;DHT22;1945;52.036;8.614;2023-06-19T11:27:04;27.50;1.00
3860;DHT22;1945;52.036;8.614;2023-06-19T11:29:31;27.80;1.00
3860;DHT22;1945;52.036;8.614;2023-06-19T11:32:05;27.80;1.00
3860;DHT22;1945;52.036;8.614;2023-06-19T11:34:35;27.90;1.00
3860;DHT22;1945;52.036;8.614;2023-06-19T11:37:02;27.40;1.00
3860;DHT22;1945;52.036;8.614;2023-06-19T11:39:31;27.30;1.00
3860;DHT22;1945;52.036;8.614;2023-06-19T11:41:58;28.00;1.00
3860;DHT22;1945;52.036;8.614;2023-06-19T11:44:25;28.50;1.00
3860;DHT22;1945;52.036;8.614;2023-06-19T11:46:56;28.60;1.00
3860;DHT22;1945;52.036;8.614;2023-06-19T11:49:24;28.30;1.00
3860;DHT22;1945;52.036;8.614;2023-06-19T11:51:52;28.30;1.00
3860;DHT22;1945;52.036;8.614;2023-06-19T11:54:18;27.90;1.00
3860;DHT22;1945;52.036;8.614;2023-06-19T11:56:46;27.20;1.00
3860;DHT22;1945;52.036;8.614;2023-06-19T11:59:13;27.50;1.00
3860;DHT22;1945;52.036;8.614;2023-06-19T12:01:40;27.30;1.00
3860;DHT22;1945;52.036;8.614;2023-06-19T12:04:07;27.70;1.00
3860;DHT22;1945;52.036;8.614;2023-06-19T12:06:34;28.40;1.00
3860;DHT22;1945;52.036;8.614;2023-06-19T12:09:03;28.60;1.00
3860;DHT22;1945;52.036;8.614;2023-06-19T12:11:31;28.50;1.00
3860;DHT22;1945;52.036;8.614;2023-06-19T12:13:57;28.20;1.00
3860;DHT22;1945;52.036;8.614;2023-06-19T12:16:24;28.20;1.00
3860;DHT22;1945;52.036;8.614;2023-06-19T12:18:51;28.20;1.00
3860;DHT22;1945;52.036;8.614;2023-06-19T12:21:17;28.20;1.00
3860;DHT22;1945;52.036;8.614;2023-06-19T12:23:44;28.60;1.00
3860;DHT22;1945;52.036;8.614;2023-06-19T12:26:12;28.20;1.00
3860;DHT22;1945;52.036;8.614;2023-06-19T12:28:39;28.20;1.00
3860;DHT22;1945;52.036;8.614;2023-06-19T12:31:06;28.50;1.00
3860;DHT22;1945;52.036;8.614;2023-06-19T12:33:33;28.40;1.00
3860;DHT22;1945;52.036;8.614;2023-06-19T12:36:02;28.00;1.00
3860;DHT22;1945;52.036;8.614;2023-06-19T12:38:31;28.00;1.00
3860;DHT22;1945;52.036;8.614;2023-06-19T12:40:58;28.60;1.00
3860;DHT22;1945;52.036;8.614;2023-06-19T12:43:26;28.90;1.00
3860;DHT22;1945;52.036;8.614;2023-06-19T12:45:52;29.00;1.00
3860;DHT22;1945;52.036;8.614;2023-06-19T12:48:19;28.90;1.00
3860;DHT22;1945;52.036;8.614;2023-06-19T12:50:46;28.70;1.00
3860;DHT22;1945;52.036;8.614;2023-06-19T12:53:13;29.50;1.00
3860;DHT22;1945;52.036;8.614;2023-06-19T12:55:39;29.80;1.00
3860;DHT22;1945;52.036;8.614;2023-06-19T12:58:06;29.70;1.00
3860;DHT22;1945;52.036;8.614;2023-06-19T13:00:34;29.30;1.00
3860;DHT22;1945;52.036;8.614;2023-06-19T13:03:01;29.60;1.00
3860;DHT22;1945;52.036;8.614;2023-06-19T13:05:27;29.30;1.00
3860;DHT22;1945;52.036;8.614;2023-06-19T13:07:54;29.50;1.00
3860;DHT22;1945;52.036;8.614;2023-06-19T13:10:21;29.20;1.00
3860;DHT22;1945;52.036;8.614;2023-06-19T13:12:48;29.00;1.00
3860;DHT22;1945;52.036;8.614;2023-06-19T13:15:14;29.40;1.00
3860;DHT22;1945;52.036;8.614;2023-06-19T13:17:43;29.50;1.00
3860;DHT22;1945;52.036;8.614;2023-06-19T13:20:10;29.30;1.00
3860;DHT22;1945;52.036;8.614;2023-06-19T13:22:36;29.30;1.00
3860;DHT22;1945;52.036;8.614;2023-06-19T13:25:04;29.60;1.00
3860;DHT22;1945;52.036;8.614;2023-06-19T13:27:31;29.30;1.00
3860;DHT22;1945;52.036;8.614;2023-06-19T13:29:57;29.00;1.00
3860;DHT22;1945;52.036;8.614;2023-06-19T13:32:24;29.30;1.00
3860;DHT22;1945;52.036;8.614;2023-06-19T13:34:52;29.40;1.00
3860;DHT22;1945;52.036;8.614;2023-06-19T13:37:19;29.00;1.00
3860;DHT22;1945;52.036;8.614;2023-06-19T13:39:46;28.80;1.00
3860;DHT22;1945;52.036;8.614;2023-06-19T13:42:13;28.60;1.00
3860;DHT22;1945;52.036;8.614;2023-06-19T13:44:40;27.60;1.00
3860;DHT22;1945;52.036;8.614;2023-06-19T13:47:07;28.40;1.00
3860;DHT22;1945;52.036;8.614;2023-06-19T13:49:33;28.80;1.00
3860;DHT22;1945;52.036;8.614;2023-06-19T13:52:01;28.60;1.00
3860;DHT22;1945;52.036;8.614;2023-06-19T13:54:28;28.30;1.00
3860;DHT22;1945;52.036;8.614;2023-06-19T13:56:55;28.40;1.00
3860;DHT22;1945;52.036;8.614;2023-06-19T13:59:21;28.50;1.00
3860;DHT22;1945;52.036;8.614;2023-06-19T14:01:48;28.90;1.00
3860;DHT22;1945;52.036;8.614;2023-06-19T14:04:15;29.20;1.00
3860;DHT22;1945;52.036;8.614;2023-06-19T14:06:41;28.80;1.00
3860;DHT22;1945;52.036;8.614;2023-06-19T14:09:11;28.90;1.00
3860;DHT22;1945;52.036;8.614;2023-06-19T14:11:38;28.60;1.00
3860;DHT22;1945;52.036;8.614;2023-06-19T14:14:05;28.60;1.00
3860;DHT22;1945;52.036;8.614;2023-06-19T14:16:31;28.50;1.00
3860;DHT22;1945;52.036;8.614;2023-06-19T14:18:58;28.70;1.00
3860;DHT22;1945;52.036;8.614;2023-06-19T14:21:24;28.90;1.00
3860;DHT22;1945;52.036;8.614;2023-06-19T14:23:52;28.70;1.00
3860;DHT22;1945;52.036;8.614;2023-06-19T14:26:20;28.80;1.00
3860;DHT22;1945;52.036;8.614;2023-06-19T14:28:47;28.50;1.00
3860;DHT22;1945;52.036;8.614;2023-06-19T14:31:14;28.60;1.00
3860;DHT22;1945;52.036;8.614;2023-06-19T14:33:41;28.70;1.00
3860;DHT22;1945;52.036;8.614;2023-06-19T14:36:08;28.80;1.00
3860;DHT22;1945;52.036;8.614;2023-06-19T14:38:34;28.90;1.00
3860;DHT22;1945;52.036;8.614;2023-06-19T14:41:01;28.80;1.00
3860;DHT22;1945;52.036;8.614;2023-06-19T14:43:30;28.70;1.00
3860;DHT22;1945;52.036;8.614;2023-06-19T14:45:58;28.60;1.00
3860;DHT22;1945;52.036;8.614;2023-06-19T14:48:25;28.80;1.00
3860;DHT22;1945;52.036;8.614;2023-06-19T14:50:51;28.80;1.00
3860;DHT22;1945;52.036;8.614;2023-06-19T14:53:18;28.70;1.00
3860;DHT22;1945;52.036;8.614;2023-06-19T14:55:45;28.90;1.00
3860;DHT22;1945;52.036;8.614;2023-06-19T14:58:12;29.20;1.00
3860;DHT22;1945;52.036;8.614;2023-06-19T15:00:41;28.80;1.00
3860;DHT22;1945;52.036;8.614;2023-06-19T15:03:08;28.70;1.00
3860;DHT22;1945;52.036;8.614;2023-06-19T15:05:35;28.90;1.00
3860;DHT22;1945;52.036;8.614;2023-06-19T15:08:02;28.80;1.00
3860;DHT22;1945;52.036;8.614;2023-06-19T15:10:28;28.70;1.00
3860;DHT22;1945;52.036;8.614;2023-06-19T15:12:55;28.70;1.00
3860;DHT22;1945;52.036;8.614;2023-06-19T15:15:22;28.70;1.00
3860;DHT22;1945;52.036;8.614;2023-06-19T15:17:50;28.70;1.00
3860;DHT22;1945;52.036;8.614;2023-06-19T15:20:17;28.80;1.00
3860;DHT22;1945;52.036;8.614;2023-06-19T15:22:46;28.80;1.00
3860;DHT22;1945;52.036;8.614;2023-06-19T15:25:13;28.60;1.00
3860;DHT22;1945;52.036;8.614;2023-06-19T15:27:40;28.80;1.00
3860;DHT22;1945;52.036;8.614;2023-06-19T15:30:07;28.80;1.00
3860;DHT22;1945;52.036;8.614;2023-06-19T15:32:34;29.00;1.00
3860;DHT22;1945;52.036;8.614;2023-06-19T15:35:02;29.00;1.00
3860;DHT22;1945;52.036;8.614;2023-06-19T15:37:29;28.90;1.00
3860;DHT22;1945;52.036;8.614;2023-06-19T15:39:56;29.00;1.00
3860;DHT22;1945;52.036;8.614;2023-06-19T15:42:23;28.80;1.00
3860;DHT22;1945;52.036;8.614;2023-06-19T15:44:49;28.60;1.00
3860;DHT22;1945;52.036;8.614;2023-06-19T15:47:17;28.50;1.00
3860;DHT22;1945;52.036;8.614;2023-06-19T15:49:44;28.30;1.00
3860;DHT22;1945;52.036;8.614;2023-06-19T15:52:12;28.20;1.00
3860;DHT22;1945;52.036;8.614;2023-06-19T15:54:39;28.40;1.00
3860;DHT22;1945;52.036;8.614;2023-06-19T15:57:05;28.50;1.00
3860;DHT22;1945;52.036;8.614;2023-06-19T15:59:32;28.60;1.00
3860;DHT22;1945;52.036;8.614;2023-06-19T16:01:59;28.60;1.00
3860;DHT22;1945;52.036;8.614;2023-06-19T16:04:26;28.60;1.00
3860;DHT22;1945;52.036;8.614;2023-06-19T16:06:53;28.40;1.00
3860;DHT22;1945;52.036;8.614;2023-06-19T16:09:21;28.30;1.00
3860;DHT22;1945;52.036;8.614;2023-06-19T16:11:47;28.40;1.00
3860;DHT22;1945;52.036;8.614;2023-06-19T16:14:15;28.50;1.00
3860;DHT22;1945;52.036;8.614;2023-06-19T16:16:42;28.70;1.00